Hlavní strana
METAR-TAF:

METAR-TAF

Letiště :

Olney-Noble Airport

Olney-Noble, Illinois, Spojené státy americké

zeměpisná šířka: 38-43-19N, zeměpisná délka: 088-10-35W, výška: 147 m

Aktuální stav počasí

Zpráva byla vytvořena před 33 minutami, v 06:55 UTC
Jihojihovýchodní vítr 4 kt
Teplota 18°C
Vlhkost vzduchu 100%
Tlak 1013 hPa
Viditelnost: 16.1 km
Polojasno ve výšce 11000 ft

METAR: KOLY 290655Z AUTO 15004KT 10SM SCT110 18/18 A2991 RMK AO2 T01830177

Čas: 02:28 (07:28 UTC)


TAF: chybějící

Stav a předpovědi počasí z více než 4 000 letišť (zprávy METAR a TAF).

Červené a žluté tečky na mapě představují dostupné meteorologické stanice.

Když kurzor umístíte na tečku, zobrazí se název stanice.

Pak kliknutím zobrazíte stav a předpověď počasí.

Chcete-li změnit mapu, kliknutím na zelené tlačítko se znaménkem +mapu přiblížíte, kliknutím na zelené tlačítko se znaménkem – mapu oddálíte a kliknutím na zelené šipky přejdete na sousední mapy.


METAR-TAF: